createdAt,value
2022-07-29T00:01:42.288Z,1.45
2022-07-29T00:04:09.509Z,1.20
2022-07-29T00:06:38.097Z,1.40
2022-07-29T00:09:05.468Z,1.35
2022-07-29T00:11:32.766Z,1.30
2022-07-29T00:14:00.149Z,1.60
2022-07-29T00:16:27.487Z,1.73
2022-07-29T00:18:54.976Z,1.67
2022-07-29T00:21:22.279Z,1.67
2022-07-29T00:23:49.472Z,1.50
2022-07-29T00:26:16.984Z,1.38
2022-07-29T00:28:44.288Z,1.45
2022-07-29T00:31:11.998Z,1.45
2022-07-29T00:33:39.288Z,1.75
2022-07-29T00:36:06.945Z,1.20
2022-07-29T00:38:34.326Z,1.40
2022-07-29T00:41:01.671Z,1.40
2022-07-29T00:43:28.902Z,1.58
2022-07-29T00:45:56.640Z,1.60
2022-07-29T00:48:24.073Z,1.73
2022-07-29T00:50:51.840Z,1.60
2022-07-29T00:53:19.209Z,1.30
2022-07-29T00:55:46.561Z,1.58
2022-07-29T00:58:14.910Z,1.58
2022-07-29T01:00:43.243Z,1.35
2022-07-29T01:03:12.806Z,1.70
2022-07-29T01:05:49.801Z,1.42
2022-07-29T01:08:18.911Z,1.50
2022-07-29T01:10:47.940Z,1.70
2022-07-29T01:13:16.486Z,1.30
2022-07-29T01:15:49.948Z,1.63
2022-07-29T01:18:23.646Z,1.80
2022-07-29T01:21:01.741Z,1.70
2022-07-29T01:23:47.823Z,1.50
2022-07-29T01:26:27.084Z,1.50
2022-07-29T01:29:07.723Z,1.83
2022-07-29T01:31:58.575Z,1.40
2022-07-29T01:34:32.895Z,1.50
2022-07-29T01:37:07.978Z,1.48
2022-07-29T01:39:36.755Z,1.60
2022-07-29T01:42:08.449Z,1.40
2022-07-29T01:44:39.571Z,1.40
2022-07-29T01:49:38.390Z,1.50
2022-07-29T01:54:50.536Z,1.52
2022-07-29T01:57:18.687Z,1.23
2022-07-29T01:59:46.903Z,1.60
2022-07-29T02:02:15.691Z,1.50
2022-07-29T02:04:44.788Z,1.55
2022-07-29T02:07:15.276Z,1.48
2022-07-29T02:09:42.981Z,1.63
2022-07-29T02:12:12.016Z,1.60
2022-07-29T02:14:42.154Z,1.48
2022-07-29T02:17:09.816Z,1.57
2022-07-29T02:19:39.306Z,1.60
2022-07-29T02:22:10.461Z,2.20
2022-07-29T02:27:05.623Z,1.40
2022-07-29T02:29:34.110Z,1.65
2022-07-29T02:32:02.354Z,1.40
2022-07-29T02:34:30.187Z,1.45
2022-07-29T02:36:58.058Z,1.55
2022-07-29T02:39:26.206Z,1.42
2022-07-29T02:41:54.200Z,1.65
2022-07-29T02:44:22.487Z,1.73
2022-07-29T02:46:54.254Z,1.50
2022-07-29T02:49:42.961Z,1.63
2022-07-29T02:52:17.853Z,1.40
2022-07-29T02:54:55.628Z,1.48
2022-07-29T02:57:53.984Z,1.65
2022-07-29T03:00:23.529Z,1.60
2022-07-29T03:02:52.454Z,1.40
2022-07-29T03:05:21.249Z,1.33
2022-07-29T03:07:51.263Z,1.67
2022-07-29T03:10:18.979Z,1.60
2022-07-29T03:12:46.693Z,1.50
2022-07-29T03:15:14.227Z,1.88
2022-07-29T03:17:42.239Z,1.60
2022-07-29T03:20:09.933Z,1.42
2022-07-29T03:22:44.523Z,1.60
2022-07-29T03:25:12.898Z,1.92
2022-07-29T03:27:40.321Z,2.22
2022-07-29T03:30:08.870Z,1.60
2022-07-29T03:32:36.728Z,1.50
2022-07-29T03:35:04.499Z,1.63
2022-07-29T03:37:31.860Z,1.75
2022-07-29T03:39:59.839Z,1.90
2022-07-29T03:42:33.829Z,1.38
2022-07-29T03:45:03.436Z,2.00
2022-07-29T03:47:36.821Z,1.60
2022-07-29T03:50:17.950Z,1.80
2022-07-29T03:52:47.050Z,1.73
2022-07-29T03:55:14.208Z,1.92
2022-07-29T03:57:41.717Z,1.85
2022-07-29T04:00:09.501Z,1.55
2022-07-29T04:02:38.063Z,1.40
2022-07-29T04:05:05.433Z,1.90
2022-07-29T04:07:33.024Z,1.95
2022-07-29T04:10:00.550Z,1.90
2022-07-29T04:12:27.839Z,1.70
2022-07-29T04:14:55.227Z,1.80
2022-07-29T04:17:22.651Z,1.80
2022-07-29T04:19:49.944Z,1.83
2022-07-29T04:22:17.286Z,1.88
2022-07-29T04:24:44.727Z,1.60
2022-07-29T04:27:12.079Z,2.13
2022-07-29T04:29:56.079Z,1.88
2022-07-29T04:32:24.763Z,1.85
2022-07-29T04:34:51.939Z,2.00
2022-07-29T04:37:19.248Z,1.90
2022-07-29T04:39:46.583Z,1.80
2022-07-29T04:42:13.991Z,1.85
2022-07-29T04:44:43.025Z,2.03
2022-07-29T04:47:12.245Z,1.95
2022-07-29T04:49:39.990Z,1.90
2022-07-29T04:52:07.848Z,2.25
2022-07-29T04:54:34.963Z,1.92
2022-07-29T04:57:02.382Z,1.92
2022-07-29T04:59:29.938Z,2.50
2022-07-29T05:01:57.434Z,2.10
2022-07-29T05:04:24.591Z,2.25
2022-07-29T05:06:51.977Z,2.40
2022-07-29T05:09:19.384Z,2.15
2022-07-29T05:11:46.690Z,2.10
2022-07-29T05:14:14.371Z,1.75
2022-07-29T05:16:43.049Z,2.30
2022-07-29T05:19:14.120Z,2.05
2022-07-29T05:21:42.429Z,2.00
2022-07-29T05:24:09.819Z,1.95
2022-07-29T05:26:37.072Z,2.13
2022-07-29T05:29:04.527Z,2.05
2022-07-29T05:31:31.892Z,1.85
2022-07-29T05:33:59.171Z,2.17
2022-07-29T05:36:26.586Z,2.03
2022-07-29T05:38:54.094Z,2.05
2022-07-29T05:41:22.442Z,2.22
2022-07-29T05:43:49.740Z,2.38
2022-07-29T05:46:17.218Z,2.08
2022-07-29T05:48:46.878Z,2.25
2022-07-29T05:51:14.375Z,1.90
2022-07-29T05:53:41.712Z,2.22
2022-07-29T05:56:09.012Z,2.00
2022-07-29T05:58:37.179Z,2.15
2022-07-29T06:01:04.421Z,2.33
2022-07-29T06:03:32.318Z,2.22
2022-07-29T06:06:00.457Z,2.15
2022-07-29T06:08:27.921Z,2.38
2022-07-29T06:10:55.274Z,2.40
2022-07-29T06:13:22.554Z,2.47
2022-07-29T06:15:49.959Z,2.03
2022-07-29T06:18:17.277Z,2.17
2022-07-29T06:20:44.785Z,1.88
2022-07-29T06:23:12.172Z,1.85
2022-07-29T06:25:41.149Z,2.40
2022-07-29T06:28:08.688Z,2.20
2022-07-29T06:30:37.143Z,2.38
2022-07-29T06:33:04.912Z,2.00
2022-07-29T06:35:41.130Z,2.10
2022-07-29T06:38:28.990Z,1.85
2022-07-29T06:41:03.914Z,1.85
2022-07-29T06:43:35.288Z,1.95
2022-07-29T06:46:21.672Z,1.90
2022-07-29T06:48:49.313Z,2.17
2022-07-29T06:51:22.833Z,2.10
2022-07-29T06:53:59.957Z,2.20
2022-07-29T06:56:31.066Z,2.03
2022-07-29T06:58:58.266Z,2.40
2022-07-29T07:01:26.662Z,2.17
2022-07-29T07:03:53.859Z,1.90
2022-07-29T07:06:21.292Z,2.00
2022-07-29T07:08:48.703Z,2.13
2022-07-29T07:11:16.321Z,1.88
2022-07-29T07:13:43.475Z,1.92
2022-07-29T07:16:10.788Z,1.80
2022-07-29T07:18:38.033Z,1.88
2022-07-29T07:21:06.695Z,1.90
2022-07-29T07:23:34.007Z,2.10
2022-07-29T07:26:01.311Z,1.95
2022-07-29T07:28:28.529Z,2.00
2022-07-29T07:30:55.926Z,2.30
2022-07-29T07:33:23.197Z,1.90
2022-07-29T07:35:50.641Z,2.08
2022-07-29T07:38:18.033Z,2.20
2022-07-29T07:40:47.381Z,2.10
2022-07-29T07:43:14.596Z,1.80
2022-07-29T07:45:43.177Z,2.22
2022-07-29T07:48:11.535Z,2.40
2022-07-29T07:50:39.748Z,2.10
2022-07-29T07:53:07.381Z,2.45
2022-07-29T07:56:00.049Z,2.38
2022-07-29T07:58:22.172Z,1.90
2022-07-29T08:00:49.653Z,2.30
2022-07-29T08:03:17.503Z,2.05
2022-07-29T08:05:45.070Z,2.20
2022-07-29T08:08:12.560Z,2.30
2022-07-29T08:10:56.958Z,2.30
2022-07-29T08:13:32.601Z,2.00
2022-07-29T08:16:11.846Z,2.33
2022-07-29T08:18:39.485Z,1.83
2022-07-29T08:21:08.904Z,2.33
2022-07-29T08:23:47.195Z,2.50
2022-07-29T08:26:17.106Z,2.30
2022-07-29T08:28:50.673Z,2.45
2022-07-29T08:31:20.617Z,2.42
2022-07-29T08:33:48.836Z,2.40
2022-07-29T08:36:16.201Z,2.60
2022-07-29T08:38:43.641Z,2.30
2022-07-29T08:41:11.043Z,1.98
2022-07-29T08:43:39.322Z,2.47
2022-07-29T08:46:06.612Z,2.38
2022-07-29T08:48:38.125Z,2.67
2022-07-29T08:51:06.345Z,2.20
2022-07-29T08:53:33.926Z,2.25
2022-07-29T08:56:01.092Z,2.22
2022-07-29T08:58:28.887Z,2.10
2022-07-29T09:00:58.226Z,2.28
2022-07-29T09:03:29.214Z,2.00
2022-07-29T09:05:56.738Z,2.00
2022-07-29T09:08:24.693Z,2.25
2022-07-29T09:10:52.885Z,2.38
2022-07-29T09:13:20.172Z,2.45
2022-07-29T09:15:47.601Z,2.33
2022-07-29T09:18:37.686Z,1.98
2022-07-29T09:21:24.327Z,1.88
2022-07-29T09:24:03.059Z,2.28
2022-07-29T09:26:31.698Z,2.00
2022-07-29T09:29:01.585Z,2.33
2022-07-29T09:31:36.066Z,2.22
2022-07-29T09:34:03.996Z,2.08
2022-07-29T09:36:31.266Z,2.58
2022-07-29T09:39:00.165Z,1.95
2022-07-29T09:41:28.263Z,1.88
2022-07-29T09:43:56.294Z,2.33
2022-07-29T09:46:25.803Z,2.03
2022-07-29T09:49:10.126Z,2.08
2022-07-29T09:51:42.321Z,2.30
2022-07-29T09:54:23.208Z,2.10
2022-07-29T09:56:50.894Z,2.30
2022-07-29T09:59:18.188Z,2.15
2022-07-29T10:01:45.554Z,2.30
2022-07-29T10:04:12.781Z,2.03
2022-07-29T10:07:04.792Z,2.35
2022-07-29T10:09:33.011Z,2.00
2022-07-29T10:12:14.702Z,2.35
2022-07-29T10:14:42.638Z,2.10
2022-07-29T10:17:10.725Z,1.83
2022-07-29T10:19:38.672Z,1.60
2022-07-29T10:22:09.358Z,1.80
2022-07-29T10:24:38.237Z,1.77
2022-07-29T10:27:06.655Z,1.67
2022-07-29T10:29:35.445Z,2.00
2022-07-29T10:32:11.905Z,2.22
2022-07-29T10:34:57.933Z,1.85
2022-07-29T10:40:57.431Z,1.73
2022-07-29T10:43:29.904Z,1.70
2022-07-29T10:46:01.702Z,2.00
2022-07-29T10:51:00.107Z,2.40
2022-07-29T10:53:46.931Z,2.53
2022-07-29T10:56:35.792Z,1.77
2022-07-29T10:59:22.910Z,1.80
2022-07-29T11:01:53.440Z,1.65
2022-07-29T11:04:40.347Z,1.70
2022-07-29T11:07:09.003Z,2.20
2022-07-29T11:09:38.357Z,1.85
2022-07-29T11:12:25.850Z,1.83
2022-07-29T11:14:57.109Z,1.90
2022-07-29T11:17:25.277Z,1.60
2022-07-29T11:19:53.575Z,1.80
2022-07-29T11:22:45.946Z,1.60
2022-07-29T11:25:16.809Z,2.00
2022-07-29T11:27:44.366Z,1.98
2022-07-29T11:30:14.460Z,1.65
2022-07-29T11:32:48.735Z,1.52
2022-07-29T11:35:37.099Z,2.15
2022-07-29T11:38:27.906Z,1.80
2022-07-29T11:41:14.141Z,2.03
2022-07-29T11:43:52.413Z,1.67
2022-07-29T11:46:38.844Z,1.80
2022-07-29T11:49:09.686Z,1.70
2022-07-29T11:51:38.605Z,2.00
2022-07-29T11:54:18.223Z,1.77
2022-07-29T11:56:57.589Z,1.40
2022-07-29T11:59:33.511Z,1.77
2022-07-29T12:02:36.228Z,1.70
2022-07-29T12:04:55.247Z,1.70
2022-07-29T12:07:34.804Z,1.73
2022-07-29T12:10:05.286Z,1.75
2022-07-29T12:12:34.294Z,1.50
2022-07-29T12:15:12.315Z,1.60
2022-07-29T12:17:40.304Z,2.13
2022-07-29T12:20:07.879Z,1.90
2022-07-29T12:22:40.261Z,1.50
2022-07-29T12:25:32.274Z,1.73
2022-07-29T12:28:02.072Z,1.70
2022-07-29T12:30:46.368Z,1.90
2022-07-29T12:33:22.775Z,1.90
2022-07-29T12:36:03.770Z,1.70
2022-07-29T12:38:35.800Z,1.85
2022-07-29T12:41:04.839Z,2.08
2022-07-29T12:43:32.831Z,1.80
2022-07-29T12:46:13.063Z,1.95
2022-07-29T12:48:41.752Z,1.70
2022-07-29T12:51:10.266Z,2.10
2022-07-29T12:53:38.243Z,2.47
2022-07-29T12:56:20.720Z,2.22
2022-07-29T12:58:53.924Z,1.95
2022-07-29T13:01:21.913Z,1.65
2022-07-29T13:03:56.782Z,1.95
2022-07-29T13:06:41.126Z,1.75
2022-07-29T13:09:10.063Z,1.70
2022-07-29T13:11:39.471Z,1.77
2022-07-29T13:14:07.343Z,1.88
2022-07-29T13:16:34.849Z,1.85
2022-07-29T13:19:10.911Z,2.05
2022-07-29T13:21:38.575Z,2.20
2022-07-29T13:24:07.271Z,2.15
2022-07-29T13:26:34.802Z,2.38
2022-07-29T13:29:02.210Z,1.90
2022-07-29T13:31:31.459Z,1.80
2022-07-29T13:33:59.670Z,2.35
2022-07-29T13:36:27.788Z,2.05
2022-07-29T13:38:55.129Z,2.20
2022-07-29T13:41:22.569Z,2.25
2022-07-29T13:43:53.288Z,2.30
2022-07-29T13:46:20.765Z,1.88
2022-07-29T13:48:48.345Z,1.90
2022-07-29T13:51:15.828Z,2.15
2022-07-29T13:53:42.943Z,2.00
2022-07-29T13:56:10.352Z,2.20
2022-07-29T13:58:37.836Z,2.30
2022-07-29T14:01:05.186Z,2.13
2022-07-29T14:03:32.546Z,2.20
2022-07-29T14:06:01.423Z,2.25
2022-07-29T14:08:28.829Z,2.30
2022-07-29T14:10:56.069Z,2.22
2022-07-29T14:13:25.154Z,2.42
2022-07-29T14:15:53.014Z,2.22
2022-07-29T14:18:20.413Z,2.20
2022-07-29T14:20:47.757Z,2.58
2022-07-29T14:23:16.303Z,2.20
2022-07-29T14:25:43.806Z,2.00
2022-07-29T14:28:11.917Z,2.05
2022-07-29T14:30:41.966Z,2.72
2022-07-29T14:33:09.455Z,2.20
2022-07-29T14:35:36.873Z,2.20
2022-07-29T14:38:04.343Z,2.05
2022-07-29T14:40:31.582Z,2.10
2022-07-29T14:42:58.884Z,2.35
2022-07-29T14:45:26.186Z,2.33
2022-07-29T14:47:56.438Z,2.20
2022-07-29T14:50:31.507Z,2.15
2022-07-29T14:52:59.252Z,2.00
2022-07-29T14:55:26.678Z,2.08
2022-07-29T14:58:03.098Z,2.10
2022-07-29T15:00:35.408Z,1.90
2022-07-29T15:03:03.119Z,2.10
2022-07-29T15:05:34.087Z,2.00
2022-07-29T15:08:01.755Z,2.30
2022-07-29T15:10:29.227Z,2.40
2022-07-29T15:12:57.450Z,2.50
2022-07-29T15:15:24.882Z,2.25
2022-07-29T15:17:52.442Z,2.20
2022-07-29T15:20:19.720Z,2.20
2022-07-29T15:22:47.033Z,2.10
2022-07-29T15:25:14.162Z,2.00
2022-07-29T15:27:41.534Z,2.13
2022-07-29T15:30:31.487Z,2.22
2022-07-29T15:33:01.419Z,2.13
2022-07-29T15:35:28.737Z,1.88
2022-07-29T15:37:56.128Z,1.80
2022-07-29T15:40:23.259Z,1.58
2022-07-29T15:42:50.523Z,1.60
2022-07-29T15:45:17.904Z,1.88
2022-07-29T15:47:45.178Z,2.45
2022-07-29T15:50:16.865Z,1.88
2022-07-29T15:52:44.353Z,2.25
2022-07-29T15:55:12.037Z,1.73
2022-07-29T15:57:40.895Z,1.58
2022-07-29T16:00:08.381Z,1.80
2022-07-29T16:02:38.199Z,1.90
2022-07-29T16:05:09.487Z,2.08
2022-07-29T16:07:37.860Z,1.70
2022-07-29T16:10:07.902Z,1.85
2022-07-29T16:12:35.402Z,1.92
2022-07-29T16:15:07.587Z,1.80
2022-07-29T16:17:37.210Z,1.85
2022-07-29T16:20:05.920Z,1.88
2022-07-29T16:22:33.135Z,1.83
2022-07-29T16:25:00.463Z,2.00
2022-07-29T16:27:35.471Z,2.13
2022-07-29T16:30:05.264Z,2.15
2022-07-29T16:32:32.905Z,1.88
2022-07-29T16:35:02.128Z,1.83
2022-07-29T16:37:33.678Z,2.20
2022-07-29T16:40:01.106Z,1.90
2022-07-29T16:42:45.491Z,1.92
2022-07-29T16:45:14.064Z,2.13
2022-07-29T16:47:41.309Z,1.90
2022-07-29T16:50:09.360Z,2.10
2022-07-29T16:52:37.616Z,2.22
2022-07-29T16:55:05.342Z,2.03
2022-07-29T16:57:32.560Z,1.95
2022-07-29T17:00:00.085Z,1.95
2022-07-29T17:02:27.351Z,1.98
2022-07-29T17:04:54.769Z,1.85
2022-07-29T17:07:21.983Z,1.75
2022-07-29T17:09:55.143Z,2.08
2022-07-29T17:12:22.766Z,1.55
2022-07-29T17:14:50.058Z,1.75
2022-07-29T17:17:20.671Z,1.80
2022-07-29T17:20:05.208Z,1.90
2022-07-29T17:22:32.534Z,1.95
2022-07-29T17:24:59.771Z,1.70
2022-07-29T17:27:28.308Z,1.48
2022-07-29T17:29:55.900Z,1.70
2022-07-29T17:32:23.211Z,1.85
2022-07-29T17:34:50.536Z,2.40
2022-07-29T17:37:17.999Z,1.92
2022-07-29T17:39:45.519Z,1.98
2022-07-29T17:42:13.755Z,1.63
2022-07-29T17:44:41.661Z,1.80
2022-07-29T17:47:10.732Z,1.75
2022-07-29T17:49:44.097Z,2.00
2022-07-29T17:52:11.610Z,1.50
2022-07-29T17:54:38.776Z,1.60
2022-07-29T17:57:06.244Z,1.88
2022-07-29T17:59:33.512Z,2.00
2022-07-29T18:02:00.856Z,1.67
2022-07-29T18:04:31.475Z,1.60
2022-07-29T18:09:26.575Z,1.90
2022-07-29T18:11:53.697Z,1.58
2022-07-29T18:14:21.957Z,1.90
2022-07-29T18:16:49.633Z,1.45
2022-07-29T18:19:17.123Z,1.95
2022-07-29T18:21:51.931Z,2.00
2022-07-29T18:24:21.351Z,1.63
2022-07-29T18:26:48.462Z,1.95
2022-07-29T18:29:15.650Z,1.70
2022-07-29T18:31:43.129Z,1.70
2022-07-29T18:34:10.415Z,1.83
2022-07-29T18:36:38.728Z,2.15
2022-07-29T18:39:06.193Z,1.75
2022-07-29T18:41:33.510Z,2.67
2022-07-29T18:44:00.918Z,1.85
2022-07-29T18:46:28.360Z,2.20
2022-07-29T18:48:57.325Z,1.67
2022-07-29T18:51:24.678Z,1.92
2022-07-29T18:53:52.586Z,2.10
2022-07-29T18:56:20.098Z,1.80
2022-07-29T18:58:47.597Z,1.65
2022-07-29T19:01:16.720Z,1.75
2022-07-29T19:03:45.303Z,1.60
2022-07-29T19:06:12.621Z,1.73
2022-07-29T19:08:41.994Z,1.88
2022-07-29T19:11:09.248Z,1.98
2022-07-29T19:13:37.758Z,1.85
2022-07-29T19:16:07.538Z,1.70
2022-07-29T19:18:34.890Z,1.83
2022-07-29T19:21:03.330Z,1.77
2022-07-29T19:23:30.990Z,1.58
2022-07-29T19:26:20.875Z,1.52
2022-07-29T19:28:48.860Z,1.80
2022-07-29T19:31:16.718Z,1.70
2022-07-29T19:33:43.936Z,1.90
2022-07-29T19:36:12.194Z,1.65
2022-07-29T19:38:39.569Z,2.22
2022-07-29T19:41:08.509Z,1.83
2022-07-29T19:43:50.845Z,2.28
2022-07-29T19:46:19.775Z,2.10
2022-07-29T19:48:47.273Z,1.90
2022-07-29T19:51:14.487Z,2.00
2022-07-29T19:53:42.037Z,1.70
2022-07-29T19:56:09.884Z,1.88
2022-07-29T19:58:37.271Z,1.75
2022-07-29T20:01:10.584Z,2.03
2022-07-29T20:03:40.225Z,1.92
2022-07-29T20:06:08.903Z,1.92
2022-07-29T20:08:38.223Z,2.47
2022-07-29T20:11:05.382Z,2.40
2022-07-29T20:13:33.852Z,2.40
2022-07-29T20:16:02.110Z,2.05
2022-07-29T20:18:29.336Z,2.63
2022-07-29T20:20:57.531Z,2.15
2022-07-29T20:23:24.925Z,2.45
2022-07-29T20:25:54.125Z,2.58
2022-07-29T20:28:23.682Z,2.08
2022-07-29T20:30:51.015Z,1.83
2022-07-29T20:33:18.417Z,2.70
2022-07-29T20:35:47.261Z,2.13
2022-07-29T20:38:18.146Z,2.75
2022-07-29T20:40:46.242Z,2.90
2022-07-29T20:43:13.343Z,2.95
2022-07-29T20:45:40.659Z,5.15
2022-07-29T20:48:08.419Z,3.33
2022-07-29T20:50:36.152Z,4.25
2022-07-29T20:53:07.649Z,7.22
2022-07-29T20:55:35.180Z,4.85
2022-07-29T20:58:02.373Z,4.15
2022-07-29T21:00:29.797Z,3.30
2022-07-29T21:02:57.382Z,3.20
2022-07-29T21:05:24.736Z,3.63
2022-07-29T21:07:55.422Z,5.18
2022-07-29T21:10:25.695Z,4.20
2022-07-29T21:12:52.955Z,3.92
2022-07-29T21:15:21.922Z,3.78
2022-07-29T21:17:49.427Z,6.50
2022-07-29T21:20:17.940Z,5.13
2022-07-29T21:22:46.224Z,3.38
2022-07-29T21:25:13.645Z,3.60
2022-07-29T21:27:59.592Z,5.40
2022-07-29T21:30:28.088Z,3.03
2022-07-29T21:32:55.450Z,3.85
2022-07-29T21:36:01.703Z,4.07
2022-07-29T21:38:10.335Z,5.30
2022-07-29T21:40:38.003Z,7.05
2022-07-29T21:43:05.180Z,5.25
2022-07-29T21:45:32.446Z,3.17
2022-07-29T21:48:00.866Z,4.55
2022-07-29T21:50:28.144Z,6.75
2022-07-29T21:52:55.428Z,4.18
2022-07-29T21:55:22.922Z,9.40
2022-07-29T21:57:54.201Z,6.13
2022-07-29T22:00:25.542Z,8.63
2022-07-29T22:02:53.516Z,10.18
2022-07-29T22:05:21.282Z,2.95
2022-07-29T22:07:55.476Z,3.58
2022-07-29T22:10:25.805Z,3.13
2022-07-29T22:12:53.936Z,3.75
2022-07-29T22:15:21.408Z,3.17
2022-07-29T22:17:48.865Z,3.63
2022-07-29T22:20:16.237Z,4.05
2022-07-29T22:22:43.582Z,3.10
2022-07-29T22:25:11.816Z,3.55
2022-07-29T22:27:39.624Z,3.80
2022-07-29T22:30:07.825Z,3.35
2022-07-29T22:32:36.605Z,3.17
2022-07-29T22:35:04.295Z,3.63
2022-07-29T22:37:31.633Z,3.28
2022-07-29T22:39:58.873Z,3.38
2022-07-29T22:42:26.324Z,3.20
2022-07-29T22:44:53.680Z,3.63
2022-07-29T22:47:46.256Z,3.28
2022-07-29T22:50:08.316Z,3.35
2022-07-29T22:52:35.716Z,3.55
2022-07-29T22:55:03.550Z,3.22
2022-07-29T22:57:31.129Z,3.45
2022-07-29T23:00:01.560Z,3.30
2022-07-29T23:02:29.058Z,3.22
2022-07-29T23:04:56.574Z,3.28
2022-07-29T23:07:25.049Z,3.15
2022-07-29T23:09:52.336Z,3.50
2022-07-29T23:12:19.691Z,3.63
2022-07-29T23:14:47.412Z,4.28
2022-07-29T23:17:14.643Z,3.55
2022-07-29T23:19:45.221Z,3.00
2022-07-29T23:22:12.492Z,3.60
2022-07-29T23:24:39.834Z,3.17
2022-07-29T23:27:08.093Z,3.17
2022-07-29T23:29:36.862Z,3.58
2022-07-29T23:32:04.546Z,3.35
2022-07-29T23:34:32.785Z,2.85
2022-07-29T23:37:00.180Z,3.55
2022-07-29T23:39:27.725Z,3.70
2022-07-29T23:41:55.074Z,2.95
2022-07-29T23:44:22.541Z,3.30
2022-07-29T23:46:50.041Z,3.10
2022-07-29T23:49:17.379Z,3.53
2022-07-29T23:51:44.613Z,3.40
2022-07-29T23:54:13.934Z,3.47
2022-07-29T23:56:41.365Z,3.70
2022-07-29T23:59:08.566Z,3.80
